createdAt,value
2022-09-17T00:01:22.717Z,80.73
2022-09-17T00:03:52.667Z,80.96
2022-09-17T00:06:22.563Z,81.16
2022-09-17T00:08:50.749Z,81.42
2022-09-17T00:11:21.166Z,80.49
2022-09-17T00:13:49.796Z,80.44
2022-09-17T00:16:24.391Z,80.70
2022-09-17T00:18:52.272Z,80.44
2022-09-17T00:21:22.269Z,80.92
2022-09-17T00:23:50.275Z,80.74
2022-09-17T00:26:18.149Z,80.14
2022-09-17T00:28:49.414Z,80.55
2022-09-17T00:31:17.359Z,80.62
2022-09-17T00:33:45.457Z,79.98
2022-09-17T00:36:13.596Z,79.86
2022-09-17T00:38:43.456Z,79.87
2022-09-17T00:41:11.408Z,79.84
2022-09-17T00:43:41.996Z,80.28
2022-09-17T00:46:25.013Z,79.77
2022-09-17T00:48:54.370Z,79.46
2022-09-17T00:51:26.904Z,79.68
2022-09-17T00:53:56.806Z,80.25
2022-09-17T00:56:27.695Z,80.77
2022-09-17T00:58:56.451Z,79.52
2022-09-17T01:01:24.639Z,80.01
2022-09-17T01:03:52.559Z,79.31
2022-09-17T01:06:26.526Z,79.86
2022-09-17T01:09:05.924Z,79.75
2022-09-17T01:11:43.480Z,79.54
2022-09-17T01:14:24.493Z,79.25
2022-09-17T01:16:58.245Z,79.56
2022-09-17T01:20:04.524Z,79.36
2022-09-17T01:22:35.827Z,79.49
2022-09-17T01:25:24.786Z,79.49
2022-09-17T01:28:39.369Z,79.79
2022-09-17T01:31:26.477Z,80.18
2022-09-17T01:34:01.504Z,80.59
2022-09-17T01:36:46.309Z,80.63
2022-09-17T01:39:23.008Z,80.96
2022-09-17T01:41:55.293Z,81.28
2022-09-17T01:44:29.569Z,81.95
2022-09-17T01:47:03.090Z,82.07
2022-09-17T01:49:31.788Z,82.01
2022-09-17T01:52:00.228Z,81.97
2022-09-17T01:54:32.158Z,82.21
2022-09-17T01:57:02.882Z,82.18
2022-09-17T01:59:34.424Z,82.45
2022-09-17T02:02:08.443Z,82.57
2022-09-17T02:04:38.237Z,82.26
2022-09-17T02:07:09.715Z,83.28
2022-09-17T02:09:41.124Z,82.66
2022-09-17T02:12:13.188Z,82.71
2022-09-17T02:14:43.992Z,82.43
2022-09-17T02:17:17.880Z,82.38
2022-09-17T02:19:45.845Z,82.81
2022-09-17T02:22:27.597Z,82.25
2022-09-17T02:25:02.710Z,82.42
2022-09-17T02:27:38.822Z,82.61
2022-09-17T02:30:07.802Z,82.82
2022-09-17T02:32:37.269Z,83.09
2022-09-17T02:35:06.417Z,83.20
2022-09-17T02:37:34.560Z,82.44
2022-09-17T02:40:03.782Z,82.83
2022-09-17T02:42:36.921Z,82.75
2022-09-17T02:45:08.892Z,82.85
2022-09-17T02:47:51.084Z,82.52
2022-09-17T02:50:28.341Z,82.70
2022-09-17T02:53:06.100Z,82.98
2022-09-17T02:55:38.626Z,82.84
2022-09-17T02:58:13.795Z,82.89
2022-09-17T03:00:41.782Z,82.62
2022-09-17T03:03:16.142Z,83.01
2022-09-17T03:05:45.527Z,82.73
2022-09-17T03:08:15.764Z,82.83
2022-09-17T03:10:43.645Z,82.60
2022-09-17T03:13:11.542Z,82.95
2022-09-17T03:15:39.476Z,82.43
2022-09-17T03:18:07.279Z,81.78
2022-09-17T03:20:36.831Z,81.30
2022-09-17T03:23:06.792Z,81.72
2022-09-17T03:25:34.673Z,81.37
2022-09-17T03:28:02.913Z,81.84
2022-09-17T03:30:30.697Z,82.22
2022-09-17T03:32:58.594Z,82.00
2022-09-17T03:35:26.542Z,81.42
2022-09-17T03:37:55.704Z,81.19
2022-09-17T03:40:23.935Z,81.65
2022-09-17T03:42:51.796Z,81.92
2022-09-17T03:45:19.626Z,81.48
2022-09-17T03:47:47.728Z,81.72
2022-09-17T03:50:15.533Z,81.81
2022-09-17T03:52:44.238Z,81.75
2022-09-17T03:55:13.477Z,81.91
2022-09-17T03:57:41.273Z,81.63
2022-09-17T04:00:10.182Z,81.49
2022-09-17T04:02:38.128Z,81.07
2022-09-17T04:05:07.424Z,81.70
2022-09-17T04:07:35.221Z,81.19
2022-09-17T04:10:04.933Z,81.43
2022-09-17T04:12:34.301Z,81.32
2022-09-17T04:15:02.430Z,81.91
2022-09-17T04:17:30.271Z,82.32
2022-09-17T04:19:58.224Z,82.32
2022-09-17T04:22:26.179Z,81.70
2022-09-17T04:24:54.114Z,81.58
2022-09-17T04:27:22.049Z,81.80
2022-09-17T04:29:51.406Z,82.27
2022-09-17T04:32:19.597Z,82.63
2022-09-17T04:34:47.467Z,82.19
2022-09-17T04:37:15.543Z,82.67
2022-09-17T04:39:43.368Z,82.64
2022-09-17T04:42:11.204Z,82.86
2022-09-17T04:44:39.098Z,82.88
2022-09-17T04:47:08.555Z,82.84
2022-09-17T04:49:36.536Z,82.92
2022-09-17T04:52:04.742Z,82.54
2022-09-17T04:54:32.675Z,82.90
2022-09-17T04:57:00.596Z,82.70
2022-09-17T04:59:28.753Z,83.09
2022-09-17T05:01:56.689Z,82.76
2022-09-17T05:04:26.021Z,83.43
2022-09-17T05:06:54.406Z,82.92
2022-09-17T05:09:22.224Z,83.27
2022-09-17T05:11:50.010Z,83.06
2022-09-17T05:14:17.966Z,83.42
2022-09-17T05:16:48.961Z,83.32
2022-09-17T05:19:16.832Z,83.00
2022-09-17T05:21:46.077Z,83.44
2022-09-17T05:24:14.051Z,83.43
2022-09-17T05:26:42.203Z,83.01
2022-09-17T05:29:10.277Z,82.98
2022-09-17T05:31:38.358Z,82.67
2022-09-17T05:34:06.266Z,83.12
2022-09-17T05:36:34.100Z,82.92
2022-09-17T05:39:03.596Z,82.88
2022-09-17T05:41:31.516Z,82.65
2022-09-17T05:43:59.439Z,82.62
2022-09-17T05:46:27.735Z,82.05
2022-09-17T05:48:57.022Z,82.45
2022-09-17T05:51:26.051Z,82.07
2022-09-17T05:53:55.644Z,81.56
2022-09-17T05:56:25.501Z,82.06
2022-09-17T05:58:56.941Z,81.68
2022-09-17T06:01:25.101Z,81.59
2022-09-17T06:03:53.536Z,81.59
2022-09-17T06:06:21.443Z,81.46
2022-09-17T06:08:49.344Z,81.73
2022-09-17T06:11:17.226Z,81.88
2022-09-17T06:13:46.456Z,81.86
2022-09-17T06:16:14.280Z,82.55
2022-09-17T06:18:42.135Z,82.11
2022-09-17T06:21:10.506Z,81.66
2022-09-17T06:23:38.313Z,81.49
2022-09-17T06:26:07.523Z,81.47
2022-09-17T06:28:40.577Z,82.00
2022-09-17T06:31:12.403Z,81.67
2022-09-17T06:33:40.642Z,81.49
2022-09-17T06:36:13.613Z,81.93
2022-09-17T06:38:42.604Z,81.55
2022-09-17T06:41:10.548Z,81.14
2022-09-17T06:43:38.370Z,80.74
2022-09-17T06:46:09.050Z,80.31
2022-09-17T06:48:39.118Z,81.26
2022-09-17T06:51:08.582Z,81.45
2022-09-17T06:53:37.843Z,80.55
2022-09-17T06:56:08.317Z,80.58
2022-09-17T06:58:37.891Z,80.43
2022-09-17T07:01:06.473Z,80.33
2022-09-17T07:03:34.813Z,80.21
2022-09-17T07:06:04.072Z,80.79
2022-09-17T07:08:34.474Z,79.98
2022-09-17T07:11:02.497Z,80.45
2022-09-17T07:13:30.274Z,80.47
2022-09-17T07:16:00.569Z,80.64
2022-09-17T07:18:29.243Z,81.33
2022-09-17T07:20:58.110Z,82.55
2022-09-17T07:23:28.767Z,83.37
2022-09-17T07:25:58.170Z,84.13
2022-09-17T07:28:26.642Z,84.21
2022-09-17T07:30:55.735Z,84.11
2022-09-17T07:33:26.325Z,84.93
2022-09-17T07:35:54.952Z,84.96
2022-09-17T07:38:23.101Z,85.74
2022-09-17T07:40:58.087Z,85.87
2022-09-17T07:43:26.453Z,85.58
2022-09-17T07:45:54.630Z,85.22
2022-09-17T07:48:22.769Z,85.71
2022-09-17T07:50:51.238Z,86.07
2022-09-17T07:53:19.089Z,86.84
2022-09-17T07:55:53.455Z,86.66
2022-09-17T07:58:23.171Z,86.87
2022-09-17T08:00:51.606Z,86.49
2022-09-17T08:03:19.691Z,87.97
2022-09-17T08:05:48.180Z,88.00
2022-09-17T08:08:20.919Z,88.01
2022-09-17T08:10:49.141Z,88.30
2022-09-17T08:13:17.166Z,89.14
2022-09-17T08:15:46.870Z,88.73
2022-09-17T08:18:17.420Z,87.57
2022-09-17T08:20:45.344Z,87.96
2022-09-17T08:23:13.527Z,87.50
2022-09-17T08:25:41.431Z,87.96
2022-09-17T08:28:09.565Z,87.41
2022-09-17T08:30:37.357Z,87.47
2022-09-17T08:33:06.742Z,87.05
2022-09-17T08:35:34.629Z,87.07
2022-09-17T08:38:02.604Z,87.71
2022-09-17T08:40:31.576Z,87.03
2022-09-17T08:43:02.494Z,86.72
2022-09-17T08:45:30.609Z,87.20
2022-09-17T08:48:10.744Z,86.23
2022-09-17T08:50:42.747Z,86.34
2022-09-17T08:53:28.459Z,85.41
2022-09-17T08:56:01.292Z,84.37
2022-09-17T08:58:47.939Z,84.94
2022-09-17T09:01:32.663Z,84.08
2022-09-17T09:04:08.483Z,81.95
2022-09-17T09:06:41.134Z,82.38
2022-09-17T09:09:13.607Z,83.30
2022-09-17T09:11:42.691Z,83.41
2022-09-17T09:14:14.633Z,83.75
2022-09-17T09:16:45.272Z,83.25
2022-09-17T09:19:23.792Z,81.98
2022-09-17T09:22:03.493Z,81.16
2022-09-17T09:24:38.543Z,80.38
2022-09-17T09:27:16.915Z,79.16
2022-09-17T09:29:51.252Z,79.83
2022-09-17T09:32:26.388Z,79.95
2022-09-17T09:34:55.901Z,80.46
2022-09-17T09:37:28.163Z,78.79
2022-09-17T09:39:57.988Z,79.72
2022-09-17T09:42:31.146Z,79.67
2022-09-17T09:45:04.785Z,79.90
2022-09-17T09:47:57.807Z,79.77
2022-09-17T09:51:05.115Z,79.17
2022-09-17T09:53:43.001Z,78.98
2022-09-17T09:56:25.029Z,78.56
2022-09-17T09:58:54.195Z,79.12
2022-09-17T10:01:22.347Z,77.74
2022-09-17T10:03:51.992Z,78.86
2022-09-17T10:06:20.825Z,78.64
2022-09-17T10:09:14.405Z,76.50
2022-09-17T10:11:42.522Z,76.62
2022-09-17T10:14:23.611Z,76.55
2022-09-17T10:16:51.613Z,76.53
2022-09-17T10:19:25.011Z,75.47
2022-09-17T10:21:53.524Z,75.90
2022-09-17T10:24:27.195Z,73.98
2022-09-17T10:27:02.046Z,72.53
2022-09-17T10:29:30.336Z,73.23
2022-09-17T10:31:59.356Z,73.53
2022-09-17T10:34:28.652Z,71.92
2022-09-17T10:36:57.356Z,71.75
2022-09-17T10:39:34.771Z,71.90
2022-09-17T10:42:04.661Z,71.86
2022-09-17T10:44:35.184Z,72.79
2022-09-17T10:47:05.799Z,70.87
2022-09-17T10:49:39.968Z,70.24
2022-09-17T10:52:15.617Z,71.14
2022-09-17T10:54:58.856Z,69.50
2022-09-17T10:57:39.185Z,70.14
2022-09-17T11:00:14.448Z,68.46
2022-09-17T11:03:05.871Z,67.60
2022-09-17T11:05:46.919Z,67.86
2022-09-17T11:08:18.602Z,67.94
2022-09-17T11:10:54.255Z,66.29
2022-09-17T11:13:29.917Z,67.61
2022-09-17T11:16:09.746Z,67.03
2022-09-17T11:18:41.537Z,65.88
2022-09-17T11:21:42.177Z,63.83
2022-09-17T11:24:32.832Z,64.48
2022-09-17T11:27:09.289Z,65.50
2022-09-17T11:29:56.736Z,64.36
2022-09-17T11:32:39.562Z,63.29
2022-09-17T11:35:10.209Z,64.09
2022-09-17T11:37:41.688Z,66.15
2022-09-17T11:40:14.918Z,68.77
2022-09-17T11:42:46.689Z,70.99
2022-09-17T11:45:18.835Z,73.50
2022-09-17T11:47:49.341Z,74.50
2022-09-17T11:50:21.366Z,74.95
2022-09-17T11:52:57.424Z,76.43
2022-09-17T11:55:30.641Z,74.94
2022-09-17T11:58:02.529Z,74.48
2022-09-17T12:00:31.740Z,76.11
2022-09-17T12:03:03.238Z,75.73
2022-09-17T12:05:34.427Z,73.61
2022-09-17T12:08:06.114Z,74.53
2022-09-17T12:10:38.698Z,71.70
2022-09-17T12:13:17.939Z,72.43
2022-09-17T12:15:52.945Z,70.17
2022-09-17T12:18:33.312Z,70.98
2022-09-17T12:21:03.175Z,70.06
2022-09-17T12:23:38.819Z,69.43
2022-09-17T12:26:15.524Z,68.75
2022-09-17T12:28:51.925Z,68.47
2022-09-17T12:31:26.271Z,63.68
2022-09-17T12:33:57.619Z,64.85
2022-09-17T12:36:37.667Z,61.01
2022-09-17T12:39:21.404Z,61.42
2022-09-17T12:41:56.682Z,63.41
2022-09-17T12:44:39.277Z,63.72
2022-09-17T12:47:22.350Z,63.72
2022-09-17T12:50:05.270Z,64.00
2022-09-17T12:52:45.521Z,63.91
2022-09-17T12:55:31.076Z,64.07
2022-09-17T12:58:04.594Z,64.72
2022-09-17T13:00:39.108Z,64.36
2022-09-17T13:03:13.135Z,64.07
2022-09-17T13:05:56.981Z,63.26
2022-09-17T13:08:56.354Z,64.07
2022-09-17T13:12:00.204Z,64.29
2022-09-17T13:14:39.284Z,63.37
2022-09-17T13:17:11.981Z,62.46
2022-09-17T13:19:45.393Z,61.88
2022-09-17T13:22:17.949Z,62.93
2022-09-17T13:24:49.071Z,63.01
2022-09-17T13:27:22.640Z,63.25
2022-09-17T13:30:01.136Z,63.50
2022-09-17T13:32:51.200Z,64.10
2022-09-17T13:35:51.486Z,65.34
2022-09-17T13:38:24.273Z,64.12
2022-09-17T13:40:53.083Z,63.13
2022-09-17T13:43:24.025Z,62.36
2022-09-17T13:46:12.398Z,62.09
2022-09-17T13:48:57.829Z,62.82
2022-09-17T13:51:53.472Z,62.50
2022-09-17T13:54:23.461Z,63.24
2022-09-17T13:57:07.110Z,64.50
2022-09-17T13:59:36.536Z,62.82
2022-09-17T14:02:30.840Z,63.15
2022-09-17T14:05:31.176Z,63.33
2022-09-17T14:08:31.176Z,63.12
2022-09-17T14:11:01.531Z,63.49
2022-09-17T14:13:45.036Z,63.88
2022-09-17T14:16:35.829Z,63.47
2022-09-17T14:19:07.052Z,63.54
2022-09-17T14:21:36.742Z,64.46
2022-09-17T14:24:15.239Z,64.68
2022-09-17T14:27:01.657Z,66.10
2022-09-17T14:30:03.166Z,66.80
2022-09-17T14:32:34.196Z,65.83
2022-09-17T14:35:02.790Z,64.86
2022-09-17T14:37:33.417Z,66.49
2022-09-17T14:40:01.257Z,65.70
2022-09-17T14:42:36.325Z,65.04
2022-09-17T14:45:07.436Z,64.13
2022-09-17T14:47:35.473Z,64.40
2022-09-17T14:50:21.732Z,64.85
2022-09-17T14:52:51.705Z,63.53
2022-09-17T14:55:21.535Z,63.01
2022-09-17T14:57:52.657Z,63.37
2022-09-17T15:00:23.214Z,63.68
2022-09-17T15:02:59.379Z,63.70
2022-09-17T15:05:31.700Z,64.58
2022-09-17T15:08:12.453Z,65.56
2022-09-17T15:10:47.436Z,65.39
2022-09-17T15:13:16.923Z,65.40
2022-09-17T15:15:53.701Z,65.56
2022-09-17T15:18:22.342Z,65.79
2022-09-17T15:20:50.905Z,65.88
2022-09-17T15:23:25.390Z,64.98
2022-09-17T15:25:56.557Z,65.09
2022-09-17T15:28:29.760Z,64.44
2022-09-17T15:30:57.987Z,65.74
2022-09-17T15:33:25.915Z,65.84
2022-09-17T15:36:02.242Z,65.30
2022-09-17T15:38:33.155Z,64.08
2022-09-17T15:41:21.042Z,64.13
2022-09-17T15:43:49.424Z,64.27
2022-09-17T15:46:24.601Z,65.32
2022-09-17T15:48:52.433Z,65.06
2022-09-17T15:51:26.474Z,65.53
2022-09-17T15:53:57.819Z,66.20
2022-09-17T15:56:27.685Z,66.85
2022-09-17T15:59:01.032Z,66.89
2022-09-17T16:01:55.491Z,67.32
2022-09-17T16:04:28.811Z,66.75
2022-09-17T16:07:02.153Z,65.49
2022-09-17T16:09:40.408Z,65.42
2022-09-17T16:12:08.526Z,64.96
2022-09-17T16:14:36.384Z,64.82
2022-09-17T16:17:17.069Z,65.35
2022-09-17T16:19:45.021Z,65.87
2022-09-17T16:22:35.177Z,66.05
2022-09-17T16:25:05.247Z,66.16
2022-09-17T16:27:35.508Z,67.24
2022-09-17T16:30:05.352Z,66.82
2022-09-17T16:32:33.161Z,67.44
2022-09-17T16:35:00.978Z,68.19
2022-09-17T16:37:28.791Z,67.27
2022-09-17T16:39:56.616Z,66.57
2022-09-17T16:42:25.804Z,66.91
2022-09-17T16:44:54.859Z,66.85
2022-09-17T16:47:22.665Z,65.75
2022-09-17T16:49:50.441Z,65.88
2022-09-17T16:52:18.842Z,65.64
2022-09-17T16:54:46.668Z,65.92
2022-09-17T16:57:14.476Z,65.93
2022-09-17T16:59:43.733Z,66.47
2022-09-17T17:02:11.796Z,67.40
2022-09-17T17:04:39.564Z,68.14
2022-09-17T17:07:07.360Z,67.18
2022-09-17T17:09:35.161Z,68.22
2022-09-17T17:12:03.357Z,67.67
2022-09-17T17:14:31.164Z,67.41
2022-09-17T17:17:00.427Z,67.87
2022-09-17T17:19:29.417Z,68.23
2022-09-17T17:21:57.200Z,68.22
2022-09-17T17:24:25.412Z,69.18
2022-09-17T17:26:53.245Z,70.27
2022-09-17T17:29:21.545Z,72.63
2022-09-17T17:31:50.025Z,73.72
2022-09-17T17:34:19.332Z,76.72
2022-09-17T17:36:49.640Z,76.95
2022-09-17T17:39:17.517Z,77.73
2022-09-17T17:41:49.636Z,79.40
2022-09-17T17:44:21.689Z,81.52
2022-09-17T17:46:49.495Z,81.24
2022-09-17T17:49:17.808Z,82.81
2022-09-17T17:51:48.496Z,82.44
2022-09-17T17:54:16.437Z,83.15
2022-09-17T17:56:44.216Z,82.79
2022-09-17T17:59:12.005Z,83.20
2022-09-17T18:01:39.838Z,83.00
2022-09-17T18:04:08.543Z,83.58
2022-09-17T18:06:36.503Z,83.77
2022-09-17T18:09:06.066Z,83.89
2022-09-17T18:11:34.466Z,84.49
2022-09-17T18:14:02.482Z,84.79
2022-09-17T18:16:34.057Z,84.49
2022-09-17T18:19:01.927Z,85.28
2022-09-17T18:21:29.972Z,85.09
2022-09-17T18:23:57.757Z,85.40
2022-09-17T18:26:28.630Z,85.98
2022-09-17T18:28:56.694Z,86.42
2022-09-17T18:31:26.593Z,85.70
2022-09-17T18:33:57.635Z,85.00
2022-09-17T18:36:25.937Z,85.28
2022-09-17T18:38:56.537Z,84.96
2022-09-17T18:41:24.581Z,85.70
2022-09-17T18:43:53.784Z,85.74
2022-09-17T18:46:21.649Z,86.29
2022-09-17T18:48:54.604Z,86.35
2022-09-17T18:51:23.001Z,87.29
2022-09-17T18:53:51.763Z,86.84
2022-09-17T18:56:21.474Z,86.65
2022-09-17T18:58:50.237Z,86.82
2022-09-17T19:01:20.262Z,86.98
2022-09-17T19:03:48.285Z,87.28
2022-09-17T19:06:16.496Z,86.98
2022-09-17T19:08:45.062Z,87.13
2022-09-17T19:11:13.241Z,87.70
2022-09-17T19:13:42.709Z,86.45
2022-09-17T19:16:11.812Z,87.04
2022-09-17T19:18:41.084Z,86.11
2022-09-17T19:21:11.492Z,86.54
2022-09-17T19:23:41.976Z,86.70
2022-09-17T19:26:11.460Z,86.62
2022-09-17T19:28:40.800Z,87.23
2022-09-17T19:31:10.066Z,87.31
2022-09-17T19:33:38.469Z,87.58
2022-09-17T19:36:10.201Z,86.65
2022-09-17T19:38:38.402Z,87.04
2022-09-17T19:41:08.340Z,86.90
2022-09-17T19:43:37.039Z,86.45
2022-09-17T19:46:06.222Z,87.20
2022-09-17T19:48:35.745Z,86.08
2022-09-17T19:51:04.332Z,85.98
2022-09-17T19:53:34.684Z,84.91
2022-09-17T19:56:02.866Z,84.16
2022-09-17T19:58:30.628Z,83.64
2022-09-17T20:00:59.080Z,84.32
2022-09-17T20:03:27.309Z,83.73
2022-09-17T20:06:00.193Z,82.77
2022-09-17T20:08:28.221Z,82.61
2022-09-17T20:11:05.572Z,82.62
2022-09-17T20:13:33.393Z,82.68
2022-09-17T20:16:04.995Z,83.17
2022-09-17T20:18:33.060Z,82.99
2022-09-17T20:21:01.058Z,83.00
2022-09-17T20:23:31.759Z,83.19
2022-09-17T20:26:00.995Z,83.68
2022-09-17T20:28:29.033Z,83.92
2022-09-17T20:31:04.258Z,84.00
2022-09-17T20:33:32.372Z,84.37
2022-09-17T20:36:00.802Z,84.35
2022-09-17T20:41:22.100Z,85.13
2022-09-17T20:43:52.544Z,84.70
2022-09-17T20:46:24.815Z,85.21
2022-09-17T20:48:57.483Z,84.19
2022-09-17T20:51:26.918Z,83.74
2022-09-17T20:53:54.778Z,84.00
2022-09-17T20:56:25.337Z,84.27
2022-09-17T20:59:00.045Z,83.90
2022-09-17T21:01:32.268Z,84.55
2022-09-17T21:04:01.473Z,84.58
2022-09-17T21:06:31.127Z,84.40
2022-09-17T21:09:00.068Z,84.70
2022-09-17T21:11:32.657Z,85.04
2022-09-17T21:14:00.747Z,84.43
2022-09-17T21:16:28.966Z,85.02
2022-09-17T21:18:58.007Z,84.50
2022-09-17T21:21:26.658Z,85.09
2022-09-17T21:23:54.971Z,85.06
2022-09-17T21:26:24.049Z,85.20
2022-09-17T21:28:56.354Z,84.40
2022-09-17T21:31:31.098Z,84.87
2022-09-17T21:34:02.207Z,84.86
2022-09-17T21:36:32.072Z,85.29
2022-09-17T21:39:01.078Z,85.04
2022-09-17T21:41:29.191Z,84.75
2022-09-17T21:43:58.440Z,84.47
2022-09-17T21:46:29.081Z,84.13
2022-09-17T21:48:58.166Z,84.36
2022-09-17T21:51:30.294Z,84.34
2022-09-17T21:53:59.541Z,84.27
2022-09-17T21:56:27.623Z,83.95
2022-09-17T21:58:58.663Z,84.27
2022-09-17T22:01:31.128Z,84.83
2022-09-17T22:03:59.963Z,85.00
2022-09-17T22:06:30.250Z,85.29
2022-09-17T22:08:59.301Z,85.17
2022-09-17T22:11:29.482Z,85.47
2022-09-17T22:14:00.923Z,84.92
2022-09-17T22:16:31.176Z,84.73
2022-09-17T22:18:59.727Z,83.79
2022-09-17T22:21:28.916Z,84.70
2022-09-17T22:24:02.077Z,84.65
2022-09-17T22:26:31.946Z,84.60
2022-09-17T22:29:03.740Z,84.99
2022-09-17T22:31:31.882Z,84.80
2022-09-17T22:33:59.965Z,85.44
2022-09-17T22:36:28.461Z,85.08
2022-09-17T22:38:58.391Z,85.12
2022-09-17T22:41:27.699Z,84.45
2022-09-17T22:43:56.940Z,85.32
2022-09-17T22:46:28.381Z,85.31
2022-09-17T22:48:56.680Z,84.68
2022-09-17T22:51:24.656Z,85.00
2022-09-17T22:53:53.038Z,84.35
2022-09-17T22:56:23.315Z,84.73
2022-09-17T22:58:51.658Z,85.05
2022-09-17T23:01:21.523Z,85.38
2022-09-17T23:03:52.597Z,85.20
2022-09-17T23:06:22.436Z,84.40
2022-09-17T23:08:50.786Z,84.42
2022-09-17T23:11:20.059Z,84.67
2022-09-17T23:13:48.824Z,84.76
2022-09-17T23:16:17.364Z,84.40
2022-09-17T23:18:45.512Z,83.92
2022-09-17T23:21:16.655Z,84.42
2022-09-17T23:23:46.097Z,84.62
2022-09-17T23:26:16.665Z,84.58
2022-09-17T23:28:44.569Z,82.86
2022-09-17T23:31:14.665Z,83.28
2022-09-17T23:33:42.961Z,84.07
2022-09-17T23:36:13.226Z,84.29
2022-09-17T23:38:43.603Z,84.37
2022-09-17T23:41:13.693Z,84.23
2022-09-17T23:43:41.971Z,84.75
2022-09-17T23:46:10.212Z,84.80
2022-09-17T23:48:38.907Z,85.02
2022-09-17T23:51:07.235Z,84.25
2022-09-17T23:53:37.088Z,83.45
2022-09-17T23:56:12.707Z,83.64
2022-09-17T23:58:41.085Z,83.54
